Time;durP1;ratioP1;P1;durP2;ratioP2;P2;SDS_P1;SDS_P2;PMS_P1;PMS_P2;Temp;Humidity;BMP_temperature;BMP_pressure;BME280_temperature;BME280_humidity;BME280_pressure;Samples;Min_cycle;Max_cycle;Signal;HPM_P1;HPM_P2
2021/08/10 00:00:01;;;;;;;7.35;2.50;;;16.20;99.90;;;;;;4974890;28;20436;-74
2021/08/10 00:02:27;;;;;;;7.43;2.65;;;16.10;99.90;;;;;;4975828;28;20471;-74
2021/08/10 00:04:52;;;;;;;11.68;2.80;;;16.10;99.90;;;;;;4975270;28;20081;-74
2021/08/10 00:07:18;;;;;;;13.57;2.90;;;16.10;99.90;;;;;;4975191;28;20023;-74
2021/08/10 00:09:44;;;;;;;6.05;2.92;;;16.10;99.90;;;;;;4975803;28;20089;-74
2021/08/10 00:12:10;;;;;;;5.07;2.50;;;16.10;99.90;;;;;;4975718;28;20673;-75
2021/08/10 00:14:35;;;;;;;10.68;2.97;;;16.00;99.90;;;;;;4975136;28;20026;-75
2021/08/10 00:17:01;;;;;;;5.72;2.63;;;16.00;99.90;;;;;;4975349;28;20467;-74
2021/08/10 00:19:26;;;;;;;7.35;2.85;;;16.00;99.90;;;;;;4976022;28;20078;-74
2021/08/10 00:21:52;;;;;;;8.80;2.63;;;16.10;99.90;;;;;;4974665;28;20050;-75
2021/08/10 00:24:18;;;;;;;11.68;2.45;;;16.00;99.90;;;;;;4975537;28;20074;-75
2021/08/10 00:26:43;;;;;;;5.63;3.20;;;16.00;99.90;;;;;;4975538;28;20031;-74
2021/08/10 00:29:09;;;;;;;6.63;2.65;;;16.00;99.90;;;;;;4974626;28;20471;-74
2021/08/10 00:31:34;;;;;;;6.75;2.60;;;15.90;99.90;;;;;;4969415;28;20079;-75
2021/08/10 00:34:00;;;;;;;6.57;2.85;;;15.90;99.90;;;;;;4966359;28;20085;-75
2021/08/10 00:36:25;;;;;;;4.03;3.28;;;15.90;99.90;;;;;;4975255;28;20026;-73
2021/08/10 00:38:51;;;;;;;10.50;3.28;;;15.90;99.90;;;;;;4974909;28;20529;-75
2021/08/10 00:41:17;;;;;;;8.75;2.55;;;15.90;99.90;;;;;;4974512;28;20019;-74
2021/08/10 00:43:45;;;;;;;6.50;3.15;;;15.90;99.90;;;;;;4975022;28;20039;-74
2021/08/10 00:46:12;;;;;;;8.93;3.25;;;15.80;99.90;;;;;;4974651;28;20498;-74
2021/08/10 00:48:39;;;;;;;6.03;2.92;;;15.90;99.90;;;;;;4975007;28;20042;-73
2021/08/10 00:51:06;;;;;;;6.15;2.90;;;15.80;99.90;;;;;;4974978;28;20498;-73
2021/08/10 00:53:32;;;;;;;3.85;2.85;;;15.80;99.90;;;;;;4974710;28;20038;-74
2021/08/10 00:55:58;;;;;;;5.25;3.20;;;15.80;99.90;;;;;;4973981;28;20026;-74
2021/08/10 00:58:24;;;;;;;5.45;3.40;;;15.80;99.90;;;;;;4974472;28;20055;-75
2021/08/10 01:00:49;;;;;;;6.13;3.53;;;15.70;99.90;;;;;;4974747;28;20027;-75
2021/08/10 01:03:16;;;;;;;6.30;3.20;;;15.70;99.90;;;;;;4973973;28;20034;-75
2021/08/10 01:05:47;;;;;;;4.40;3.00;;;15.70;99.90;;;;;;4974886;28;20502;-74
2021/08/10 01:08:37;;;;;;;5.25;3.13;;;15.70;99.90;;;;;;4974802;28;20058;-73
2021/08/10 01:11:21;;;;;;;8.77;3.70;;;15.70;99.90;;;;;;4973743;28;20022;-74
2021/08/10 01:14:19;;;;;;;5.57;3.30;;;15.70;99.90;;;;;;4974259;28;20034;-73
2021/08/10 01:16:53;;;;;;;10.10;3.97;;;15.70;99.90;;;;;;4973666;28;20376;-74
2021/08/10 01:19:33;;;;;;;9.32;3.28;;;15.70;99.90;;;;;;4974499;28;20027;-74
2021/08/10 01:22:02;;;;;;;8.13;3.33;;;15.60;99.90;;;;;;4974093;28;20034;-74
2021/08/10 01:24:40;;;;;;;9.77;3.67;;;15.60;99.90;;;;;;4973763;28;20467;-73
2021/08/10 01:27:38;;;;;;;11.18;4.25;;;15.60;99.90;;;;;;4973768;28;20058;-75
2021/08/10 01:30:31;;;;;;;9.20;3.65;;;15.70;99.90;;;;;;4974369;28;20296;-75
2021/08/10 01:32:59;;;;;;;6.63;3.53;;;15.70;99.90;;;;;;4959681;28;20446;-75
2021/08/10 01:35:26;;;;;;;6.63;3.70;;;15.80;99.90;;;;;;4974337;28;20389;-75
2021/08/10 01:37:57;;;;;;;8.68;3.58;;;15.80;99.90;;;;;;4973152;28;20126;-74
2021/08/10 01:40:26;;;;;;;8.30;4.00;;;15.70;99.90;;;;;;4974023;28;20081;-75
2021/08/10 01:42:55;;;;;;;4.70;3.10;;;15.70;99.90;;;;;;4973650;28;20217;-75
2021/08/10 01:45:22;;;;;;;8.93;3.15;;;15.70;99.90;;;;;;4973371;28;20062;-76
2021/08/10 01:47:48;;;;;;;5.93;3.22;;;15.70;99.90;;;;;;4973923;28;20029;-73
2021/08/10 01:50:15;;;;;;;9.10;3.25;;;15.70;99.90;;;;;;4979358;28;20022;-74
2021/08/10 01:52:41;;;;;;;7.60;3.30;;;15.70;99.90;;;;;;4981135;28;20070;-74
2021/08/10 01:55:08;;;;;;;5.05;2.90;;;15.70;99.90;;;;;;4973445;28;20487;-73
2021/08/10 01:57:35;;;;;;;5.82;3.28;;;15.70;99.90;;;;;;4973320;28;20045;-75
2021/08/10 02:00:00;;;;;;;8.10;3.10;;;15.70;99.90;;;;;;4972613;28;20415;-74
2021/08/10 02:02:26;;;;;;;7.50;3.03;;;15.70;99.90;;;;;;4973902;28;20031;-74
2021/08/10 02:04:52;;;;;;;7.82;3.05;;;15.80;99.90;;;;;;4973208;28;20027;-74
2021/08/10 02:07:19;;;;;;;8.68;4.25;;;15.70;99.90;;;;;;4972866;28;20055;-74
2021/08/10 02:09:46;;;;;;;4.93;3.28;;;15.80;99.90;;;;;;4973581;28;20073;-75
2021/08/10 02:12:13;;;;;;;5.07;3.53;;;15.80;99.90;;;;;;4973446;28;20035;-75
2021/08/10 02:14:40;;;;;;;10.98;3.72;;;15.70;99.90;;;;;;4973230;28;20027;-74
2021/08/10 02:17:07;;;;;;;10.88;4.10;;;15.70;99.90;;;;;;4974042;28;20034;-74
2021/08/10 02:19:34;;;;;;;8.80;3.60;;;15.70;99.90;;;;;;4973221;28;20392;-75
2021/08/10 02:22:05;;;;;;;9.00;3.47;;;15.70;99.90;;;;;;4973814;28;20055;-75
2021/08/10 02:24:43;;;;;;;7.55;3.85;;;15.70;99.90;;;;;;4974135;28;20034;-75
2021/08/10 02:27:17;;;;;;;6.55;3.92;;;15.70;99.90;;;;;;4972543;28;20479;-74
2021/08/10 02:29:45;;;;;;;8.45;3.70;;;15.70;99.90;;;;;;4973138;28;20026;-75
2021/08/10 02:32:13;;;;;;;11.57;4.32;;;15.60;99.90;;;;;;4962543;28;20035;-74
2021/08/10 02:34:42;;;;;;;4.00;3.58;;;15.60;99.90;;;;;;4969742;28;20485;-75
2021/08/10 02:37:12;;;;;;;5.13;3.30;;;15.60;99.90;;;;;;4973144;28;20023;-75
2021/08/10 02:39:39;;;;;;;8.68;3.78;;;15.50;99.90;;;;;;4972958;28;20035;-74
2021/08/10 02:42:06;;;;;;;6.57;3.75;;;15.50;99.90;;;;;;4972718;28;20081;-73
2021/08/10 02:44:34;;;;;;;7.72;3.78;;;15.60;99.90;;;;;;4965354;28;20026;-74
2021/08/10 02:47:00;;;;;;;7.10;3.45;;;15.50;99.90;;;;;;4953717;28;20035;-74
2021/08/10 02:49:26;;;;;;;12.73;4.68;;;15.50;99.90;;;;;;4956783;28;20031;-75
2021/08/10 02:51:53;;;;;;;11.10;4.07;;;15.50;99.90;;;;;;4970477;28;20094;-74
2021/08/10 02:54:19;;;;;;;9.27;4.18;;;15.50;99.90;;;;;;4959478;28;20031;-74
2021/08/10 02:56:52;;;;;;;7.13;4.07;;;15.50;99.90;;;;;;4971875;28;20093;-73
2021/08/10 02:59:29;;;;;;;9.93;4.15;;;15.50;99.90;;;;;;4972769;28;20137;-75
2021/08/10 03:02:06;;;;;;;8.38;4.07;;;15.50;99.90;;;;;;4964213;28;20146;-73
2021/08/10 03:04:35;;;;;;;6.65;3.97;;;15.50;99.90;;;;;;4969007;28;20019;-75
2021/08/10 03:07:02;;;;;;;9.43;3.67;;;15.40;99.90;;;;;;4973279;28;20034;-73
2021/08/10 03:09:28;;;;;;;7.65;3.65;;;15.30;99.90;;;;;;4975850;28;20591;-74
2021/08/10 03:11:57;;;;;;;10.88;4.72;;;15.30;99.90;;;;;;4976815;28;20022;-74
2021/08/10 03:14:25;;;;;;;8.35;4.53;;;15.40;99.90;;;;;;4977226;28;20180;-74
2021/08/10 03:16:52;;;;;;;8.95;4.63;;;15.30;99.90;;;;;;4981491;28;20076;-73
2021/08/10 03:19:20;;;;;;;15.60;4.93;;;15.40;99.90;;;;;;4974055;28;20490;-75
2021/08/10 03:21:46;;;;;;;12.00;3.95;;;15.30;99.90;;;;;;4973922;28;20021;-74
2021/08/10 03:24:13;;;;;;;5.88;3.97;;;15.40;99.90;;;;;;4976072;28;20436;-73
2021/08/10 03:26:41;;;;;;;7.05;4.53;;;15.30;99.90;;;;;;4976235;28;20089;-73
2021/08/10 03:29:07;;;;;;;9.30;4.13;;;15.30;99.90;;;;;;4976816;28;20102;-74
2021/08/10 03:31:39;;;;;;;11.75;5.05;;;15.30;99.90;;;;;;4975428;28;20026;-74
2021/08/10 03:34:05;;;;;;;9.18;4.20;;;15.30;99.90;;;;;;4976286;28;20035;-75
2021/08/10 03:36:31;;;;;;;11.63;5.13;;;15.20;99.90;;;;;;4975947;28;20141;-74
2021/08/10 03:38:58;;;;;;;10.63;4.22;;;15.20;99.90;;;;;;4975248;28;20026;-74
2021/08/10 03:41:26;;;;;;;19.02;4.45;;;15.20;99.90;;;;;;4986919;28;20105;-74
2021/08/10 03:43:52;;;;;;;6.65;4.60;;;15.10;99.90;;;;;;4977721;28;20390;-74
2021/08/10 03:46:18;;;;;;;12.73;4.53;;;15.10;99.90;;;;;;4976103;28;20110;-74
2021/08/10 03:48:45;;;;;;;6.68;4.25;;;15.10;99.90;;;;;;4975849;28;20518;-74
2021/08/10 03:51:12;;;;;;;13.35;4.75;;;15.10;99.90;;;;;;4975601;28;20043;-74
2021/08/10 03:53:39;;;;;;;11.43;5.05;;;15.10;99.90;;;;;;4963209;28;20135;-74
2021/08/10 03:56:06;;;;;;;7.22;4.57;;;15.00;99.90;;;;;;4975166;28;20436;-74
2021/08/10 03:58:34;;;;;;;11.18;3.97;;;15.00;99.90;;;;;;4974859;28;20046;-75
2021/08/10 04:01:01;;;;;;;8.55;4.47;;;15.00;99.90;;;;;;4975891;28;20019;-74
2021/08/10 04:03:30;;;;;;;5.90;4.22;;;15.00;99.90;;;;;;4975606;28;20031;-75
2021/08/10 04:05:58;;;;;;;13.48;4.80;;;15.00;99.90;;;;;;4975095;28;20058;-75
2021/08/10 04:08:24;;;;;;;10.23;5.05;;;14.90;99.90;;;;;;4976014;28;20121;-75
2021/08/10 04:10:50;;;;;;;9.40;5.00;;;14.90;99.90;;;;;;4975411;28;20110;-75
2021/08/10 04:13:17;;;;;;;9.50;4.75;;;14.90;99.90;;;;;;4975007;28;20034;-76
2021/08/10 04:15:48;;;;;;;14.10;5.47;;;14.80;99.90;;;;;;4975413;28;20031;-75
2021/08/10 04:18:19;;;;;;;9.23;5.20;;;14.80;99.90;;;;;;4975346;28;20094;-74
2021/08/10 04:20:51;;;;;;;;;;;14.80;99.90;;;;;;4974248;28;20106;-75
2021/08/10 04:23:17;;;;;;;8.57;4.60;;;14.70;99.90;;;;;;4975326;28;19913;-75
2021/08/10 04:25:44;;;;;;;8.60;5.28;;;14.70;99.90;;;;;;4975148;28;20022;-75
2021/08/10 04:28:11;;;;;;;10.20;4.90;;;14.70;99.90;;;;;;4974567;28;20486;-75
2021/08/10 04:30:37;;;;;;;12.13;5.20;;;14.70;99.90;;;;;;4975168;28;20390;-75
2021/08/10 04:33:04;;;;;;;9.82;5.43;;;14.70;99.90;;;;;;4974583;28;20046;-75
2021/08/10 04:35:30;;;;;;;9.48;4.80;;;14.70;99.90;;;;;;4975153;28;20031;-75
2021/08/10 04:37:56;;;;;;;11.90;4.78;;;14.70;99.90;;;;;;4975451;28;20481;-75
2021/08/10 04:40:21;;;;;;;7.75;4.70;;;14.80;99.90;;;;;;4974463;28;20023;-74
2021/08/10 04:42:47;;;;;;;7.15;4.40;;;14.70;99.90;;;;;;4975177;28;20149;-75
2021/08/10 04:45:13;;;;;;;13.73;5.47;;;14.70;99.90;;;;;;4974819;28;20051;-74
2021/08/10 04:47:39;;;;;;;11.50;4.85;;;14.70;99.90;;;;;;4974052;28;20061;-74
2021/08/10 04:50:05;;;;;;;7.70;4.47;;;14.70;99.90;;;;;;4974911;28;20490;-75
2021/08/10 04:52:31;;;;;;;6.72;5.13;;;14.70;99.90;;;;;;4970638;28;20039;-74
2021/08/10 04:54:57;;;;;;;11.68;5.22;;;14.80;99.90;;;;;;4964286;28;20387;-75
2021/08/10 04:57:24;;;;;;;8.50;5.30;;;14.70;99.90;;;;;;4974884;28;20027;-75
2021/08/10 04:59:50;;;;;;;9.52;4.93;;;14.80;99.90;;;;;;4973416;28;20057;-74
2021/08/10 05:02:22;;;;;;;9.55;5.18;;;14.80;99.90;;;;;;4974028;28;20438;-75
2021/08/10 05:04:48;;;;;;;8.95;4.28;;;14.80;99.90;;;;;;4962504;28;20023;-75
2021/08/10 05:07:13;;;;;;;9.05;5.85;;;14.90;99.90;;;;;;4967871;28;20427;-74
2021/08/10 05:09:40;;;;;;;10.60;5.25;;;14.90;99.90;;;;;;4973096;28;20031;-75
2021/08/10 05:12:09;;;;;;;7.93;5.22;;;15.00;99.90;;;;;;4974500;28;20023;-75
2021/08/10 05:14:35;;;;;;;7.10;4.80;;;15.00;99.90;;;;;;4966747;28;20027;-74
2021/08/10 05:17:01;;;;;;;10.05;5.10;;;15.10;99.90;;;;;;4972199;28;20034;-74
2021/08/10 05:19:26;;;;;;;11.32;4.82;;;15.10;99.90;;;;;;4957463;28;20121;-75
2021/08/10 05:21:52;;;;;;;7.57;4.97;;;15.20;99.90;;;;;;4957566;28;20024;-73
2021/08/10 05:24:17;;;;;;;7.15;5.00;;;15.30;99.90;;;;;;4955729;28;20031;-74
2021/08/10 05:26:43;;;;;;;10.05;5.25;;;15.40;99.90;;;;;;4959258;28;20582;-74
2021/08/10 05:29:08;;;;;;;13.38;4.80;;;15.50;99.90;;;;;;4958986;28;20051;-74
2021/08/10 05:31:34;;;;;;;8.38;5.60;;;15.60;99.90;;;;;;4958519;28;20106;-74
2021/08/10 05:33:59;;;;;;;8.68;4.75;;;15.70;99.90;;;;;;4961393;28;20265;-74
2021/08/10 05:36:25;;;;;;;12.63;4.65;;;15.70;99.90;;;;;;4953474;28;20109;-74
2021/08/10 05:38:53;;;;;;;14.02;6.63;;;15.80;99.90;;;;;;4956461;28;20098;-74
2021/08/10 05:41:22;;;;;;;9.55;5.03;;;15.70;99.90;;;;;;4956270;28;20031;-74
2021/08/10 05:43:48;;;;;;;9.57;4.53;;;15.70;99.90;;;;;;4958992;28;20356;-74
2021/08/10 05:46:14;;;;;;;11.98;4.75;;;15.70;99.90;;;;;;4957890;28;20486;-73
2021/08/10 05:48:40;;;;;;;11.40;5.80;;;15.70;99.90;;;;;;4955179;28;20031;-74
2021/08/10 05:51:05;;;;;;;13.13;5.15;;;15.80;99.90;;;;;;4954440;28;20023;-74
2021/08/10 05:53:32;;;;;;;9.35;5.25;;;15.90;99.90;;;;;;4964555;28;20039;-74
2021/08/10 05:56:01;;;;;;;11.00;5.22;;;15.90;99.90;;;;;;4959146;28;20102;-74
2021/08/10 05:58:27;;;;;;;8.77;4.82;;;16.00;99.90;;;;;;4960577;28;20708;-74
2021/08/10 06:00:52;;;;;;;7.32;5.63;;;16.00;99.90;;;;;;4970225;28;20034;-75
2021/08/10 06:03:18;;;;;;;15.05;5.28;;;15.90;99.90;;;;;;4961824;28;20031;-74
2021/08/10 06:05:44;;;;;;;12.68;5.50;;;16.00;99.90;;;;;;4967275;28;20089;-74
2021/08/10 06:08:09;;;;;;;9.50;5.20;;;16.00;99.90;;;;;;4973411;28;20015;-75
2021/08/10 06:10:35;;;;;;;8.43;4.70;;;16.10;99.90;;;;;;4973049;28;20023;-74
2021/08/10 06:13:01;;;;;;;5.22;4.72;;;16.10;99.90;;;;;;4972524;28;20034;-74
2021/08/10 06:15:27;;;;;;;7.85;4.93;;;16.20;99.90;;;;;;4973354;28;20341;-74
2021/08/10 06:17:53;;;;;;;15.32;5.55;;;16.20;99.90;;;;;;4972930;28;20502;-75
2021/08/10 06:20:19;;;;;;;10.15;5.15;;;16.30;99.90;;;;;;4973360;28;20035;-75
2021/08/10 06:22:45;;;;;;;13.32;5.72;;;16.40;99.90;;;;;;4972947;28;20038;-75
2021/08/10 06:25:12;;;;;;;15.07;5.88;;;16.50;99.90;;;;;;4973453;28;20015;-75
2021/08/10 06:27:38;;;;;;;7.47;4.97;;;16.60;99.90;;;;;;4972130;28;20089;-74
2021/08/10 06:30:08;;;;;;;5.85;5.35;;;16.70;99.90;;;;;;4973306;28;20029;-75
2021/08/10 06:32:34;;;;;;;11.27;5.60;;;16.80;99.90;;;;;;4973594;28;20030;-74
2021/08/10 06:34:59;;;;;;;9.52;5.57;;;16.90;99.90;;;;;;4972263;28;20352;-74
2021/08/10 06:37:25;;;;;;;8.13;5.82;;;16.90;99.90;;;;;;4973395;28;20027;-74
2021/08/10 06:39:50;;;;;;;7.95;6.25;;;16.90;99.90;;;;;;4971963;28;20468;-74
2021/08/10 06:42:20;;;;;;;10.57;6.05;;;17.80;99.90;;;;;;4972250;28;20478;-74
2021/08/10 06:44:46;;;;;;;16.80;6.40;;;16.90;99.90;;;;;;4960416;28;20118;-74
2021/08/10 06:47:12;;;;;;;9.23;5.63;;;17.00;99.90;;;;;;4967252;28;20376;-75
2021/08/10 06:49:38;;;;;;;13.85;5.55;;;17.00;99.90;;;;;;4953169;28;20019;-74
2021/08/10 06:52:05;;;;;;;9.85;4.95;;;17.10;99.90;;;;;;4957320;28;20027;-76
2021/08/10 06:54:31;;;;;;;8.05;4.82;;;17.20;99.90;;;;;;4958687;28;20137;-74
2021/08/10 06:56:56;;;;;;;12.00;5.32;;;17.30;99.90;;;;;;4972941;28;20062;-74
2021/08/10 06:59:22;;;;;;;11.63;4.80;;;17.30;99.90;;;;;;4972714;28;20075;-75
2021/08/10 07:01:47;;;;;;;12.70;5.15;;;17.40;99.90;;;;;;4972068;28;20027;-75
2021/08/10 07:04:13;;;;;;;11.13;4.45;;;17.40;99.90;;;;;;4972744;28;20019;-76
2021/08/10 07:06:38;;;;;;;11.68;4.55;;;17.50;99.90;;;;;;4977086;28;20030;-75
2021/08/10 07:09:06;;;;;;;7.93;4.13;;;17.60;99.90;;;;;;4991778;28;20031;-74
2021/08/10 07:11:33;;;;;;;9.82;4.45;;;17.60;99.90;;;;;;4991794;28;20109;-71
2021/08/10 07:13:59;;;;;;;13.00;5.00;;;17.60;99.90;;;;;;4992611;28;20039;-76
2021/08/10 07:16:25;;;;;;;13.52;4.47;;;18.10;99.90;;;;;;4991767;28;20068;-76
2021/08/10 07:18:50;;;;;;;9.88;4.35;;;17.70;99.90;;;;;;4991967;28;20070;-73
2021/08/10 07:21:16;;;;;;;12.40;4.18;;;17.70;99.90;;;;;;4992339;28;20537;-74
2021/08/10 07:23:41;;;;;;;3.97;3.25;;;17.80;99.90;;;;;;4991264;28;20030;-74
2021/08/10 07:26:07;;;;;;;9.35;4.10;;;17.80;99.90;;;;;;4992267;28;20058;-74
2021/08/10 07:28:32;;;;;;;6.45;3.70;;;17.90;99.90;;;;;;4992044;28;20093;-76
2021/08/10 07:30:58;;;;;;;7.38;3.80;;;17.90;99.90;;;;;;4991715;28;20073;-74
2021/08/10 07:33:23;;;;;;;8.55;4.00;;;17.90;99.90;;;;;;4992147;28;20066;-74
2021/08/10 07:35:49;;;;;;;7.40;3.70;;;18.00;99.90;;;;;;4992133;28;20029;-70
2021/08/10 07:38:14;;;;;;;7.97;3.65;;;18.00;99.90;;;;;;4991551;28;20093;-70
2021/08/10 07:40:40;;;;;;;4.43;2.88;;;18.00;99.90;;;;;;4991269;28;20112;-71
2021/08/10 07:43:05;;;;;;;6.88;3.00;;;18.00;99.90;;;;;;4991239;28;20826;-71
2021/08/10 07:45:31;;;;;;;7.95;3.38;;;18.10;99.90;;;;;;4984228;28;20019;-69
2021/08/10 07:48:01;;;;;;;6.05;3.38;;;18.10;99.90;;;;;;4972659;28;20025;-71
2021/08/10 07:50:27;;;;;;;5.40;2.90;;;18.30;99.90;;;;;;4961978;28;20027;-70
2021/08/10 07:52:52;;;;;;;7.00;3.33;;;18.50;99.90;;;;;;4953982;28;20046;-70
2021/08/10 07:55:18;;;;;;;5.25;3.13;;;18.50;99.90;;;;;;4955615;28;20058;-72
2021/08/10 07:57:43;;;;;;;6.03;2.95;;;18.70;99.90;;;;;;4987726;28;20089;-71
2021/08/10 08:00:11;;;;;;;6.32;2.88;;;18.60;99.90;;;;;;4995154;28;20077;-69
2021/08/10 08:02:36;;;;;;;7.55;3.38;;;18.70;99.90;;;;;;4995095;28;20030;-72
2021/08/10 08:05:02;;;;;;;3.75;2.75;;;18.80;99.90;;;;;;4960299;28;20097;-69
2021/08/10 08:07:29;;;;;;;8.15;3.70;;;18.90;99.90;;;;;;4956307;28;20107;-69
2021/08/10 08:09:55;;;;;;;6.75;4.13;;;19.00;99.90;;;;;;4962886;28;20027;-69
2021/08/10 08:12:21;;;;;;;8.48;4.10;;;19.10;99.90;;;;;;4959346;28;20042;-71
2021/08/10 08:14:46;;;;;;;6.30;3.72;;;19.20;99.90;;;;;;4968611;28;20089;-71
2021/08/10 08:17:12;;;;;;;5.20;3.30;;;19.30;99.90;;;;;;4975478;28;20403;-72
2021/08/10 08:19:38;;;;;;;8.43;3.67;;;19.30;99.90;;;;;;4974924;28;20031;-71
2021/08/10 08:22:04;;;;;;;6.28;3.15;;;19.40;99.90;;;;;;4975216;28;20023;-71
2021/08/10 08:24:29;;;;;;;4.95;3.35;;;19.40;99.90;;;;;;4961040;28;20034;-72
2021/08/10 08:26:55;;;;;;;6.20;3.15;;;19.60;99.90;;;;;;4958664;28;20034;-76
2021/08/10 08:29:21;;;;;;;6.80;2.83;;;19.80;99.90;;;;;;4961625;28;20109;-74
2021/08/10 08:31:46;;;;;;;4.95;3.10;;;20.00;99.90;;;;;;4955855;28;20380;-74
2021/08/10 08:34:12;;;;;;;6.63;3.20;;;20.10;99.90;;;;;;4960932;28;20074;-74
2021/08/10 08:36:38;;;;;;;5.85;2.63;;;20.00;99.90;;;;;;4956395;28;20028;-75
2021/08/10 08:39:03;;;;;;;6.22;3.10;;;19.90;99.90;;;;;;4964924;28;20027;-75
2021/08/10 08:41:29;;;;;;;7.30;3.05;;;19.90;99.90;;;;;;4961639;28;20043;-74
2021/08/10 08:43:54;;;;;;;6.65;3.22;;;19.80;99.90;;;;;;4956103;28;20032;-76
2021/08/10 08:46:22;;;;;;;4.72;2.83;;;19.80;99.90;;;;;;4961708;28;20038;-70
2021/08/10 08:48:48;;;;;;;5.78;2.58;;;19.80;99.90;;;;;;4974537;28;20031;-72
2021/08/10 08:51:17;;;;;;;8.60;2.75;;;19.70;99.90;;;;;;4974817;28;20030;-72
2021/08/10 08:53:49;;;;;;;6.10;2.55;;;19.70;99.90;;;;;;4968550;28;20045;-79
2021/08/10 08:56:22;;;;;;;4.75;2.75;;;19.60;99.90;;;;;;4994586;28;20050;-73
2021/08/10 08:58:48;;;;;;;5.60;3.22;;;19.60;99.90;;;;;;4994259;28;20046;-77
2021/08/10 09:01:14;;;;;;;4.03;2.58;;;19.70;99.90;;;;;;4978496;28;20022;-78
2021/08/10 09:03:39;;;;;;;5.90;3.00;;;19.60;99.90;;;;;;4993327;28;20042;-78
2021/08/10 09:06:05;;;;;;;3.70;2.58;;;19.50;99.90;;;;;;4994202;28;20344;-77
2021/08/10 09:08:39;;;;;;;5.57;2.97;;;19.60;99.90;;;;;;4993608;28;20092;-77
2021/08/10 09:11:07;;;;;;;5.90;3.00;;;19.60;99.90;;;;;;4994664;28;20390;-76
2021/08/10 09:13:33;;;;;;;5.93;3.17;;;19.60;99.90;;;;;;4994263;28;20042;-77
2021/08/10 09:16:01;;;;;;;9.00;3.65;;;19.70;99.90;;;;;;4993693;28;20050;-77
2021/08/10 09:18:27;;;;;;;9.40;2.75;;;19.90;99.90;;;;;;4982835;28;20038;-77
2021/08/10 09:21:10;;;;;;;8.50;3.05;;;20.10;99.90;;;;;;4992044;28;20027;-76
2021/08/10 09:23:36;;;;;;;11.45;3.60;;;20.20;99.90;;;;;;4993534;28;20030;-78
2021/08/10 09:26:02;;;;;;;7.35;3.00;;;20.20;99.90;;;;;;4994371;28;20378;-77
2021/08/10 09:28:35;;;;;;;9.30;4.05;;;20.20;99.90;;;;;;4993514;28;20022;-78
2021/08/10 09:31:38;;;;;;;6.25;3.28;;;20.10;99.90;;;;;;4993803;28;20023;-78
2021/08/10 09:34:07;;;;;;;6.00;3.65;;;20.20;99.90;;;;;;4993951;28;20038;-77
2021/08/10 09:36:34;;;;;;;6.95;3.55;;;20.30;99.90;;;;;;4992953;28;20030;-78
2021/08/10 09:38:59;;;;;;;7.20;3.60;;;20.40;99.90;;;;;;4994365;28;20069;-78
2021/08/10 09:41:27;;;;;;;5.68;3.78;;;20.70;99.90;;;;;;4993917;28;20152;-77
2021/08/10 09:44:17;;;;;;;6.75;3.15;;;20.90;99.90;;;;;;4993511;28;20482;-78
2021/08/10 09:46:48;;;;;;;12.07;4.38;;;21.10;99.90;;;;;;4994223;28;20023;-78
2021/08/10 09:49:14;;;;;;;6.18;3.50;;;21.10;99.90;;;;;;4994065;28;20109;-78
2021/08/10 09:51:42;;;;;;;7.60;3.25;;;21.10;99.90;;;;;;4987850;28;20041;-78
2021/08/10 09:54:11;;;;;;;6.47;3.60;;;21.20;99.90;;;;;;4960748;28;20438;-77
2021/08/10 09:56:49;;;;;;;9.07;4.28;;;21.00;99.90;;;;;;4973238;28;20058;-78
2021/08/10 09:59:27;;;;;;;8.00;4.18;;;20.90;99.90;;;;;;4974954;28;20423;-78
2021/08/10 10:01:56;;;;;;;6.82;3.30;;;20.90;99.90;;;;;;4974147;28;20493;-78
2021/08/10 10:04:29;;;;;;;8.93;3.83;;;20.90;99.90;;;;;;4973242;28;20058;-78
2021/08/10 10:07:08;;;;;;;8.70;4.80;;;20.90;99.90;;;;;;4974309;28;20022;-77
2021/08/10 10:09:34;;;;;;;7.47;4.68;;;20.80;99.90;;;;;;4973803;28;20110;-77
2021/08/10 10:12:01;;;;;;;6.35;4.18;;;20.70;99.90;;;;;;4973578;28;20102;-77
2021/08/10 10:14:28;;;;;;;5.75;3.38;;;20.50;99.90;;;;;;4973542;28;20039;-78
2021/08/10 10:16:54;;;;;;;4.05;3.17;;;20.30;99.90;;;;;;4973518;28;20031;-76
2021/08/10 10:19:21;;;;;;;9.18;4.07;;;20.40;99.90;;;;;;4973095;28;20022;-77
2021/08/10 10:21:58;;;;;;;6.88;3.75;;;20.00;99.90;;;;;;4974021;28;20073;-75
2021/08/10 10:24:26;;;;;;;6.78;3.78;;;19.90;99.90;;;;;;4973830;28;20038;-76
2021/08/10 10:26:59;;;;;;;7.22;4.63;;;19.90;99.90;;;;;;4973298;28;20015;-78
2021/08/10 10:29:27;;;;;;;9.13;4.78;;;19.90;99.90;;;;;;4973710;28;20031;-78
2021/08/10 10:31:53;;;;;;;7.40;4.43;;;19.80;99.90;;;;;;4973422;28;20031;-76
2021/08/10 10:34:19;;;;;;;7.13;4.43;;;19.90;99.90;;;;;;4974250;28;20041;-77
2021/08/10 10:36:47;;;;;;;7.93;3.70;;;20.00;99.90;;;;;;4973451;28;20030;-77
2021/08/10 10:39:19;;;;;;;9.07;4.22;;;19.90;99.90;;;;;;4972619;28;20521;-76
2021/08/10 10:41:46;;;;;;;5.97;4.25;;;19.90;99.90;;;;;;4973272;28;20383;-78
2021/08/10 10:44:12;;;;;;;8.75;4.15;;;19.90;99.90;;;;;;4973685;28;20097;-76
2021/08/10 10:46:39;;;;;;;8.63;4.30;;;19.90;99.90;;;;;;4973415;28;20467;-77
2021/08/10 10:49:07;;;;;;;8.63;4.60;;;19.80;99.90;;;;;;4985879;28;20031;-77
2021/08/10 10:51:35;;;;;;;5.45;4.15;;;19.70;99.90;;;;;;4973350;28;20378;-77
2021/08/10 10:54:25;;;;;;;7.88;4.55;;;19.70;99.90;;;;;;4959020;28;20101;-77
2021/08/10 10:56:52;;;;;;;9.73;4.18;;;19.60;99.90;;;;;;4973124;28;20089;-77
2021/08/10 10:59:23;;;;;;;9.38;4.22;;;19.70;99.90;;;;;;4973142;28;20059;-77
2021/08/10 11:01:48;;;;;;;7.25;4.53;;;19.80;99.90;;;;;;4982525;28;20077;-76
2021/08/10 11:04:14;;;;;;;5.25;3.88;;;20.00;99.90;;;;;;4976714;28;20030;-76
2021/08/10 11:06:45;;;;;;;8.48;3.97;;;20.20;99.90;;;;;;4973221;28;20737;-76
2021/08/10 11:09:37;;;;;;;8.38;3.58;;;20.40;99.90;;;;;;4972713;28;20276;-76
2021/08/10 11:12:32;;;;;;;11.63;4.07;;;20.50;99.90;;;;;;4972751;28;20480;-77
2021/08/10 11:14:58;;;;;;;8.32;4.22;;;20.70;99.90;;;;;;4959455;28;20035;-75
2021/08/10 11:17:24;;;;;;;7.18;4.18;;;20.90;99.90;;;;;;4973044;28;20446;-77
2021/08/10 11:19:50;;;;;;;9.75;3.60;;;21.10;99.90;;;;;;4972985;28;20101;-76
2021/08/10 11:22:16;;;;;;;9.77;4.40;;;21.30;99.90;;;;;;4972526;28;20019;-77
2021/08/10 11:24:44;;;;;;;5.53;3.88;;;21.40;99.90;;;;;;4972903;28;20082;-78
2021/08/10 11:27:28;;;;;;;7.65;4.28;;;21.40;99.90;;;;;;4973322;28;20026;-77
2021/08/10 11:29:53;;;;;;;8.20;4.82;;;21.50;99.90;;;;;;4975267;28;20474;-78
2021/08/10 11:32:44;;;;;;;11.73;4.15;;;21.50;99.90;;;;;;4977091;28;20054;-77
2021/08/10 11:35:40;;;;;;;10.48;3.55;;;21.60;99.90;;;;;;4976102;28;20027;-78
2021/08/10 11:38:20;;;;;;;7.13;4.03;;;21.60;99.90;;;;;;4976135;28;20364;-77
2021/08/10 11:40:59;;;;;;;7.93;3.58;;;21.70;99.90;;;;;;4976748;28;20543;-77
2021/08/10 11:43:45;;;;;;;7.28;4.13;;;21.70;99.90;;;;;;4976104;28;20031;-77
2021/08/10 11:46:34;;;;;;;6.45;3.28;;;21.60;99.90;;;;;;4976588;28;20039;-77
2021/08/10 11:49:06;;;;;;;8.27;3.45;;;21.70;99.90;;;;;;4976576;28;20101;-77
2021/08/10 11:51:38;;;;;;;7.50;3.65;;;21.80;99.90;;;;;;4976252;28;20023;-76
2021/08/10 11:54:10;;;;;;;6.50;3.50;;;21.80;99.90;;;;;;4962711;28;20042;-77
2021/08/10 11:57:05;;;;;;;5.68;3.08;;;21.70;99.90;;;;;;4975568;28;20034;-77
2021/08/10 11:59:31;;;;;;;6.63;4.13;;;21.60;99.90;;;;;;4975807;28;20059;-77
2021/08/10 12:01:59;;;;;;;9.52;3.97;;;21.70;99.90;;;;;;4976472;28;20071;-77
2021/08/10 12:04:30;;;;;;;7.45;4.22;;;21.70;99.90;;;;;;4975834;28;20447;-78
2021/08/10 12:06:57;;;;;;;7.50;3.40;;;21.70;99.90;;;;;;4976305;28;20018;-77
2021/08/10 12:09:36;;;;;;;8.35;3.35;;;21.80;99.90;;;;;;4976140;28;20109;-77
2021/08/10 12:12:03;;;;;;;6.70;4.25;;;21.90;99.90;;;;;;4975833;28;20481;-78
2021/08/10 12:14:31;;;;;;;8.32;3.60;;;22.00;99.90;;;;;;4978257;28;20114;-78
2021/08/10 12:17:07;;;;;;;7.25;3.38;;;22.10;99.90;;;;;;4987044;28;20034;-76
2021/08/10 12:19:41;;;;;;;6.30;4.50;;;22.00;99.90;;;;;;4975072;28;20165;-77
2021/08/10 12:22:08;;;;;;;8.30;3.90;;;22.00;99.90;;;;;;4975948;28;20102;-77
2021/08/10 12:24:38;;;;;;;7.05;3.78;;;21.90;99.90;;;;;;4975081;28;20033;-76
2021/08/10 12:27:05;;;;;;;7.43;3.53;;;21.80;99.90;;;;;;4976098;28;20019;-76
2021/08/10 12:29:40;;;;;;;5.57;3.30;;;21.80;99.90;;;;;;4975650;28;20558;-77
2021/08/10 12:32:08;;;;;;;9.52;3.40;;;21.90;99.90;;;;;;4975319;28;20027;-78
2021/08/10 12:34:39;;;;;;;4.10;3.33;;;21.90;99.90;;;;;;4975729;28;20050;-77
2021/08/10 12:37:05;;;;;;;7.50;3.13;;;22.00;99.90;;;;;;4976117;28;20050;-78
2021/08/10 12:39:39;;;;;;;8.40;3.40;;;22.10;99.90;;;;;;4975160;28;20066;-77
2021/08/10 12:42:05;;;;;;;5.80;3.10;;;22.20;99.90;;;;;;4975553;28;20047;-77
2021/08/10 12:44:30;;;;;;;4.65;3.42;;;22.30;99.90;;;;;;4975769;28;20109;-77
2021/08/10 12:46:58;;;;;;;7.28;3.33;;;22.30;99.90;;;;;;4974899;28;20553;-78
2021/08/10 12:49:41;;;;;;;5.55;3.47;;;22.40;99.90;;;;;;4975852;28;20073;-77
2021/08/10 12:52:10;;;;;;;6.10;3.63;;;22.40;99.90;;;;;;4974883;28;20023;-76